createdAt,value
2018-11-10T00:00:39.696Z,144.70
2018-11-10T00:03:09.305Z,143.77
2018-11-10T00:05:38.904Z,145.97
2018-11-10T00:08:08.670Z,150.73
2018-11-10T00:10:38.264Z,153.40
2018-11-10T00:13:07.917Z,157.23
2018-11-10T00:15:37.596Z,147.77
2018-11-10T00:18:07.515Z,147.40
2018-11-10T00:20:37.099Z,139.73
2018-11-10T00:23:06.856Z,140.30
2018-11-10T00:25:36.407Z,145.47
2018-11-10T00:28:06.016Z,141.17
2018-11-10T00:30:35.625Z,154.73
2018-11-10T00:33:05.285Z,143.90
2018-11-10T00:35:35.199Z,143.97
2018-11-10T00:38:05.216Z,144.17
2018-11-10T00:40:34.856Z,145.40
2018-11-10T00:43:04.540Z,149.90
2018-11-10T00:45:34.134Z,150.67
2018-11-10T00:48:04.009Z,163.77
2018-11-10T00:50:33.578Z,165.47
2018-11-10T00:53:03.129Z,152.83
2018-11-10T00:55:32.815Z,147.90
2018-11-10T00:58:02.476Z,149.97
2018-11-10T01:00:32.064Z,150.53
2018-11-10T01:03:01.666Z,189.77
2018-11-10T01:05:31.302Z,190.20
2018-11-10T01:08:00.917Z,199.33
2018-11-10T01:10:30.502Z,198.93
2018-11-10T01:13:00.075Z,188.07
2018-11-10T01:15:29.704Z,168.13
2018-11-10T01:17:59.282Z,158.13
2018-11-10T01:20:28.904Z,158.93
2018-11-10T01:22:58.541Z,164.03
2018-11-10T01:25:28.149Z,165.57
2018-11-10T01:27:57.960Z,175.77
2018-11-10T01:30:27.477Z,182.13
2018-11-10T01:32:57.106Z,189.77
2018-11-10T01:35:26.878Z,188.87
2018-11-10T01:37:56.494Z,162.27
2018-11-10T01:40:26.087Z,165.07
2018-11-10T01:42:55.757Z,161.27
2018-11-10T01:45:25.365Z,170.43
2018-11-10T01:47:55.007Z,158.20
2018-11-10T01:50:24.616Z,167.97
2018-11-10T01:52:54.251Z,164.77
2018-11-10T01:55:23.796Z,156.70
2018-11-10T01:57:53.423Z,154.43
2018-11-10T02:00:22.960Z,148.30
2018-11-10T02:02:52.614Z,163.03
2018-11-10T02:05:22.239Z,161.97
2018-11-10T02:07:51.853Z,155.53
2018-11-10T02:10:21.428Z,159.47
2018-11-10T02:12:51.018Z,159.17
2018-11-10T02:15:20.720Z,152.10
2018-11-10T02:17:50.317Z,152.40
2018-11-10T02:20:19.909Z,159.73
2018-11-10T02:22:49.594Z,160.60
2018-11-10T02:25:19.247Z,157.47
2018-11-10T02:27:48.894Z,152.37
2018-11-10T02:30:18.476Z,149.83
2018-11-10T02:32:48.076Z,149.47
2018-11-10T02:35:17.654Z,147.33
2018-11-10T02:37:47.257Z,164.43
2018-11-10T02:40:16.986Z,153.47
2018-11-10T02:42:46.596Z,154.07
2018-11-10T02:45:16.366Z,156.20
2018-11-10T02:47:46.336Z,154.27
2018-11-10T02:50:16.047Z,151.50
2018-11-10T02:52:45.731Z,151.73
2018-11-10T02:55:15.186Z,147.33
2018-11-10T02:57:44.817Z,145.50
2018-11-10T03:00:15.174Z,140.57
2018-11-10T03:02:44.819Z,143.77
2018-11-10T03:05:14.390Z,142.77
2018-11-10T03:07:44.025Z,137.20
2018-11-10T03:10:13.647Z,135.27
2018-11-10T03:12:43.306Z,135.77
2018-11-10T03:15:13.455Z,136.17
2018-11-10T03:17:43.029Z,132.13
2018-11-10T03:20:15.487Z,129.83
2018-11-10T03:22:45.635Z,127.40
2018-11-10T03:25:15.256Z,125.23
2018-11-10T03:27:44.926Z,130.23
2018-11-10T03:30:14.574Z,124.33
2018-11-10T03:32:44.525Z,129.50
2018-11-10T03:35:14.136Z,131.17
2018-11-10T03:37:43.805Z,128.20
2018-11-10T03:40:13.620Z,129.50
2018-11-10T03:42:43.194Z,135.50
2018-11-10T03:45:13.552Z,134.47
2018-11-10T03:47:43.146Z,128.00
2018-11-10T03:50:12.905Z,132.73
2018-11-10T03:52:42.989Z,134.97
2018-11-10T03:55:12.580Z,138.47
2018-11-10T03:57:42.095Z,133.53
2018-11-10T04:00:13.424Z,138.20
2018-11-10T04:02:44.549Z,136.50
2018-11-10T04:05:14.796Z,127.13
2018-11-10T04:07:45.420Z,125.90
2018-11-10T04:10:15.671Z,128.17
2018-11-10T04:12:46.347Z,125.07
2018-11-10T04:15:15.986Z,112.23
2018-11-10T04:17:45.586Z,119.80
2018-11-10T04:20:15.157Z,116.40
2018-11-10T04:22:44.732Z,112.43
2018-11-10T04:25:14.321Z,158.97
2018-11-10T04:27:43.965Z,176.33
2018-11-10T04:30:13.537Z,193.30
2018-11-10T04:32:43.108Z,188.73
2018-11-10T04:35:13.810Z,181.83
2018-11-10T04:37:43.426Z,170.43
2018-11-10T04:40:12.999Z,166.73
2018-11-10T04:42:42.618Z,160.13
2018-11-10T04:45:13.412Z,164.50
2018-11-10T04:47:43.076Z,163.10
2018-11-10T04:50:13.221Z,155.90
2018-11-10T04:52:43.165Z,146.57
2018-11-10T04:55:13.506Z,145.30
2018-11-10T04:57:43.135Z,133.67
2018-11-10T05:00:14.820Z,133.57
2018-11-10T05:02:45.373Z,140.67
2018-11-10T05:05:15.078Z,131.87
2018-11-10T05:07:44.667Z,131.07
2018-11-10T05:10:14.286Z,129.10
2018-11-10T05:12:43.867Z,122.30
2018-11-10T05:15:14.201Z,128.63
2018-11-10T05:17:43.835Z,119.33
2018-11-10T05:20:13.523Z,117.70
2018-11-10T05:22:43.222Z,126.27
2018-11-10T05:25:12.843Z,131.70
2018-11-10T05:27:42.397Z,128.40
2018-11-10T05:30:12.562Z,128.33
2018-11-10T05:32:42.130Z,130.00
2018-11-10T05:35:11.760Z,136.17
2018-11-10T05:37:41.373Z,132.97
2018-11-10T05:40:11.793Z,130.00
2018-11-10T05:42:41.888Z,130.20
2018-11-10T05:45:11.623Z,133.67
2018-11-10T05:47:41.199Z,133.90
2018-11-10T05:50:10.955Z,127.13
2018-11-10T05:52:40.587Z,126.03
2018-11-10T05:55:10.351Z,131.43
2018-11-10T05:57:40.941Z,134.17
2018-11-10T06:00:14.263Z,126.93
2018-11-10T06:02:43.980Z,125.33
2018-11-10T06:05:13.899Z,128.70
2018-11-10T06:07:43.505Z,128.17
2018-11-10T06:10:13.510Z,123.07
2018-11-10T06:12:43.594Z,120.73
2018-11-10T06:15:13.225Z,118.80
2018-11-10T06:17:42.886Z,119.43
2018-11-10T06:20:13.590Z,117.27
2018-11-10T06:22:43.195Z,124.50
2018-11-10T06:25:12.804Z,121.77
2018-11-10T06:27:42.327Z,133.50
2018-11-10T06:30:12.935Z,132.07
2018-11-10T06:32:42.634Z,125.73
2018-11-10T06:35:12.329Z,117.77
2018-11-10T06:37:42.844Z,112.20
2018-11-10T06:40:13.801Z,108.50
2018-11-10T06:42:44.031Z,107.87
2018-11-10T06:45:13.609Z,104.83
2018-11-10T06:47:43.269Z,105.53
2018-11-10T06:50:13.504Z,100.77
2018-11-10T06:52:43.117Z,91.77
2018-11-10T06:55:12.770Z,93.40
2018-11-10T06:57:42.478Z,87.23
2018-11-10T07:00:14.584Z,84.93
2018-11-10T07:02:44.905Z,77.13
2018-11-10T07:05:14.496Z,73.43
2018-11-10T07:07:44.055Z,67.30
2018-11-10T07:10:13.680Z,66.17
2018-11-10T07:12:43.285Z,63.20
2018-11-10T07:15:12.896Z,58.00
2018-11-10T07:17:42.543Z,61.27
2018-11-10T07:20:12.102Z,58.57
2018-11-10T07:22:41.685Z,59.80
2018-11-10T07:25:11.321Z,57.07
2018-11-10T07:27:40.929Z,56.23
2018-11-10T07:30:12.976Z,57.87
2018-11-10T07:32:43.266Z,56.70
2018-11-10T07:35:13.836Z,57.43
2018-11-10T07:37:43.434Z,54.87
2018-11-10T07:40:13.733Z,53.00
2018-11-10T07:42:43.389Z,53.50
2018-11-10T07:45:16.827Z,52.70
2018-11-10T07:47:46.666Z,49.70
2018-11-10T07:50:16.289Z,49.67
2018-11-10T07:52:45.937Z,48.47
2018-11-10T07:55:16.259Z,48.43
2018-11-10T07:57:45.854Z,49.47
2018-11-10T08:00:16.839Z,46.57
2018-11-10T08:02:46.543Z,48.43
2018-11-10T08:05:16.669Z,46.97
2018-11-10T08:07:46.401Z,46.13
2018-11-10T08:10:16.335Z,45.60
2018-11-10T08:12:45.913Z,44.37
2018-11-10T08:15:16.893Z,44.27
2018-11-10T08:17:47.076Z,43.50
2018-11-10T08:20:16.686Z,43.30
2018-11-10T08:22:46.449Z,42.93
2018-11-10T08:25:16.447Z,41.80
2018-11-10T08:27:46.075Z,38.53
2018-11-10T08:30:15.885Z,39.40
2018-11-10T08:32:45.621Z,39.07
2018-11-10T08:35:15.775Z,37.07
2018-11-10T08:37:45.462Z,35.07
2018-11-10T08:40:16.374Z,38.00
2018-11-10T08:42:46.075Z,37.77
2018-11-10T08:45:16.299Z,38.23
2018-11-10T08:47:45.987Z,36.23
2018-11-10T08:50:16.465Z,36.23
2018-11-10T08:52:46.040Z,36.57
2018-11-10T08:55:15.633Z,35.77
2018-11-10T08:57:45.358Z,33.13
2018-11-10T09:00:14.874Z,36.07
2018-11-10T09:02:44.456Z,35.20
2018-11-10T09:05:14.067Z,35.23
2018-11-10T09:07:43.823Z,33.37
2018-11-10T09:10:14.535Z,32.87
2018-11-10T09:12:44.148Z,33.43
2018-11-10T09:15:15.160Z,34.10
2018-11-10T09:17:45.215Z,31.13
2018-11-10T09:20:16.076Z,34.00
2018-11-10T09:22:45.816Z,31.80
2018-11-10T09:25:17.599Z,32.13
2018-11-10T09:27:47.398Z,31.03
2018-11-10T09:30:17.932Z,32.33
2018-11-10T09:32:47.563Z,29.97
2018-11-10T09:35:17.175Z,32.10
2018-11-10T09:37:46.856Z,30.73
2018-11-10T09:40:17.247Z,31.17
2018-11-10T09:42:46.955Z,30.03
2018-11-10T09:45:17.534Z,29.47
2018-11-10T09:47:47.215Z,29.20
2018-11-10T09:50:20.065Z,28.73
2018-11-10T09:52:49.894Z,28.63
2018-11-10T09:55:19.814Z,30.13
2018-11-10T09:57:49.407Z,28.63
2018-11-10T10:00:20.320Z,29.77
2018-11-10T10:02:50.723Z,29.27
2018-11-10T10:05:19.989Z,29.27
2018-11-10T10:07:49.597Z,30.33
2018-11-10T10:10:19.724Z,29.07
2018-11-10T10:12:49.288Z,29.13
2018-11-10T10:15:19.563Z,28.70
2018-11-10T10:17:49.294Z,29.10
2018-11-10T10:20:20.251Z,28.07
2018-11-10T10:22:50.558Z,29.20
2018-11-10T10:25:20.664Z,27.87
2018-11-10T10:27:51.062Z,27.00
2018-11-10T10:30:22.292Z,28.03
2018-11-10T10:32:51.866Z,27.33
2018-11-10T10:35:21.668Z,26.43
2018-11-10T10:37:51.899Z,25.73
2018-11-10T10:40:21.486Z,22.67
2018-11-10T10:42:51.153Z,24.17
2018-11-10T10:45:24.638Z,22.57
2018-11-10T10:47:54.253Z,22.27
2018-11-10T10:50:24.146Z,23.37
2018-11-10T10:52:53.864Z,25.63
2018-11-10T10:55:23.484Z,28.70
2018-11-10T10:57:53.089Z,26.73
2018-11-10T11:00:26.666Z,26.93
2018-11-10T11:02:56.521Z,23.70
2018-11-10T11:05:29.883Z,23.33
2018-11-10T11:07:59.456Z,23.07
2018-11-10T11:10:29.056Z,23.07
2018-11-10T11:12:58.645Z,22.20
2018-11-10T11:15:28.424Z,24.87
2018-11-10T11:17:58.023Z,22.27
2018-11-10T11:20:27.625Z,23.53
2018-11-10T11:22:57.204Z,21.23
2018-11-10T11:25:26.874Z,23.00
2018-11-10T11:27:56.652Z,23.23
2018-11-10T11:30:26.235Z,22.53
2018-11-10T11:32:55.835Z,21.57
2018-11-10T11:35:25.498Z,21.30
2018-11-10T11:37:55.123Z,21.63
2018-11-10T11:40:24.716Z,20.37
2018-11-10T11:42:54.348Z,20.03
2018-11-10T11:45:23.914Z,21.47
2018-11-10T11:47:53.492Z,18.93
2018-11-10T11:50:23.195Z,20.73
2018-11-10T11:52:52.805Z,21.23
2018-11-10T11:55:22.418Z,21.63
2018-11-10T11:57:52.138Z,20.40
2018-11-10T12:00:21.655Z,20.97
2018-11-10T12:02:51.258Z,20.47
2018-11-10T12:05:20.915Z,21.47
2018-11-10T12:07:50.470Z,20.43
2018-11-10T12:10:20.073Z,20.43
2018-11-10T12:12:49.744Z,19.93
2018-11-10T12:15:19.362Z,19.10
2018-11-10T12:17:48.956Z,21.10
2018-11-10T12:20:18.574Z,20.53
2018-11-10T12:22:48.181Z,20.63
2018-11-10T12:25:17.816Z,20.70
2018-11-10T12:27:47.505Z,21.13
2018-11-10T12:30:17.046Z,21.30
2018-11-10T12:32:46.665Z,22.87
2018-11-10T12:35:16.309Z,22.37
2018-11-10T12:37:45.916Z,23.57
2018-11-10T12:40:15.518Z,22.20
2018-11-10T12:42:46.265Z,23.17
2018-11-10T12:45:15.863Z,24.27
2018-11-10T12:47:45.467Z,22.03
2018-11-10T12:50:15.981Z,23.13
2018-11-10T12:52:46.129Z,22.60
2018-11-10T12:55:16.559Z,22.70
2018-11-10T12:57:46.958Z,24.03
2018-11-10T13:00:22.823Z,22.97
2018-11-10T13:02:52.376Z,22.67
2018-11-10T13:05:22.036Z,21.80
2018-11-10T13:07:51.669Z,21.50
2018-11-10T13:10:21.237Z,22.70
2018-11-10T13:12:51.265Z,23.13
2018-11-10T13:15:20.837Z,22.60
2018-11-10T13:17:50.446Z,24.13
2018-11-10T13:20:20.087Z,25.30
2018-11-10T13:22:49.688Z,21.83
2018-11-10T13:25:20.365Z,24.00
2018-11-10T13:27:50.004Z,23.10
2018-11-10T13:30:19.649Z,23.57
2018-11-10T13:32:49.304Z,24.10
2018-11-10T13:35:18.925Z,23.17
2018-11-10T13:37:48.713Z,24.77
2018-11-10T13:40:18.328Z,23.87
2018-11-10T13:42:48.074Z,25.43
2018-11-10T13:45:17.681Z,24.27
2018-11-10T13:47:47.392Z,25.70
2018-11-10T13:50:17.024Z,24.37
2018-11-10T13:52:47.065Z,23.70
2018-11-10T13:55:16.356Z,24.13
2018-11-10T13:57:46.126Z,25.87
2018-11-10T14:00:17.363Z,25.13
2018-11-10T14:02:47.061Z,26.00
2018-11-10T14:05:16.767Z,26.97
2018-11-10T14:07:46.415Z,26.97
2018-11-10T14:10:16.835Z,26.43
2018-11-10T14:12:47.215Z,24.23
2018-11-10T14:15:16.847Z,25.00
2018-11-10T14:17:46.460Z,28.33
2018-11-10T14:20:16.973Z,28.10
2018-11-10T14:22:47.265Z,30.97
2018-11-10T14:25:17.589Z,31.60
2018-11-10T14:27:47.328Z,33.63
2018-11-10T14:30:18.165Z,38.30
2018-11-10T14:32:48.144Z,33.37
2018-11-10T14:35:17.853Z,32.63
2018-11-10T14:37:47.484Z,31.93
2018-11-10T14:40:18.165Z,28.17
2018-11-10T14:42:47.826Z,27.23
2018-11-10T14:45:18.787Z,25.90
2018-11-10T14:47:48.581Z,26.20
2018-11-10T14:50:19.002Z,25.87
2018-11-10T14:52:48.742Z,26.27
2018-11-10T14:55:18.323Z,25.20
2018-11-10T14:57:47.976Z,28.13
2018-11-10T15:00:19.371Z,26.43
2018-11-10T15:02:49.036Z,27.97
2018-11-10T15:05:18.680Z,28.33
2018-11-10T15:07:48.319Z,27.67
2018-11-10T15:10:18.736Z,29.07
2018-11-10T15:12:48.932Z,29.13
2018-11-10T15:15:19.308Z,30.30
2018-11-10T15:17:49.201Z,29.80
2018-11-10T15:20:19.857Z,30.27
2018-11-10T15:22:49.612Z,31.00
2018-11-10T15:25:20.590Z,32.97
2018-11-10T15:27:50.227Z,34.00
2018-11-10T15:30:21.015Z,34.13
2018-11-10T15:32:51.196Z,32.13
2018-11-10T15:35:22.145Z,34.03
2018-11-10T15:37:52.816Z,34.10
2018-11-10T15:40:23.094Z,37.50
2018-11-10T15:42:52.812Z,34.97
2018-11-10T15:45:22.534Z,35.70
2018-11-10T15:47:52.147Z,38.30
2018-11-10T15:50:22.130Z,35.60
2018-11-10T15:52:51.736Z,34.90
2018-11-10T15:55:21.351Z,35.27
2018-11-10T15:57:51.020Z,33.57
2018-11-10T16:00:20.973Z,34.10
2018-11-10T16:02:50.627Z,37.10
2018-11-10T16:05:20.264Z,36.60
2018-11-10T16:07:49.900Z,36.73
2018-11-10T16:10:19.745Z,39.30
2018-11-10T16:12:49.197Z,43.37
2018-11-10T16:15:19.134Z,43.13
2018-11-10T16:17:48.775Z,37.53
2018-11-10T16:20:20.141Z,38.07
2018-11-10T16:22:52.862Z,36.60
2018-11-10T16:25:22.509Z,35.13
2018-11-10T16:27:52.207Z,38.23
2018-11-10T16:30:22.060Z,37.03
2018-11-10T16:32:51.834Z,36.00
2018-11-10T16:35:21.481Z,38.67
2018-11-10T16:37:51.203Z,40.57
2018-11-10T16:40:21.441Z,44.57
2018-11-10T16:42:51.435Z,46.30
2018-11-10T16:45:21.747Z,47.07
2018-11-10T16:47:51.388Z,42.67
2018-11-10T16:50:20.980Z,44.40
2018-11-10T16:52:50.645Z,44.97
2018-11-10T16:55:20.291Z,45.23
2018-11-10T16:57:49.966Z,45.70
2018-11-10T17:00:20.285Z,45.97
2018-11-10T17:02:49.942Z,47.13
2018-11-10T17:05:25.776Z,48.83
2018-11-10T17:07:55.492Z,45.70
2018-11-10T17:10:25.107Z,45.10
2018-11-10T17:12:54.765Z,43.37
2018-11-10T17:15:24.457Z,44.43
2018-11-10T17:17:53.976Z,43.90
2018-11-10T17:20:23.722Z,42.20
2018-11-10T17:22:53.319Z,44.70
2018-11-10T17:25:22.999Z,45.73
2018-11-10T17:27:52.688Z,42.80
2018-11-10T17:30:22.704Z,43.73
2018-11-10T17:32:52.371Z,42.13
2018-11-10T17:35:21.977Z,43.20
2018-11-10T17:37:51.600Z,45.60
2018-11-10T17:40:21.350Z,48.83
2018-11-10T17:42:50.885Z,49.37
2018-11-10T17:45:20.489Z,54.47
2018-11-10T17:47:50.146Z,51.73
2018-11-10T17:50:19.806Z,51.10
2018-11-10T17:52:49.482Z,49.07
2018-11-10T17:55:19.100Z,49.80
2018-11-10T17:57:48.813Z,53.43
2018-11-10T18:00:18.421Z,55.37
2018-11-10T18:02:48.141Z,56.37
2018-11-10T18:05:18.037Z,56.43
2018-11-10T18:07:47.676Z,57.47
2018-11-10T18:10:18.424Z,56.20
2018-11-10T18:12:48.107Z,57.20
2018-11-10T18:15:17.835Z,58.47
2018-11-10T18:17:47.513Z,58.23
2018-11-10T18:20:17.926Z,67.63
2018-11-10T18:22:47.877Z,66.83
2018-11-10T18:25:17.537Z,70.57
2018-11-10T18:27:47.172Z,71.23
2018-11-10T18:30:16.880Z,74.63
2018-11-10T18:32:46.675Z,67.37
2018-11-10T18:35:16.145Z,75.70
2018-11-10T18:37:45.846Z,84.63
2018-11-10T18:40:15.529Z,77.10
2018-11-10T18:42:45.144Z,76.70
2018-11-10T18:45:14.835Z,79.07
2018-11-10T18:47:44.463Z,78.67
2018-11-10T18:50:15.778Z,81.30
2018-11-10T18:52:45.505Z,82.27
2018-11-10T18:55:16.012Z,83.47
2018-11-10T18:57:46.000Z,85.47
2018-11-10T19:00:16.802Z,82.93
2018-11-10T19:02:46.570Z,88.27
2018-11-10T19:05:17.376Z,87.03
2018-11-10T19:07:47.039Z,82.30
2018-11-10T19:10:17.888Z,79.37
2018-11-10T19:12:47.622Z,80.57
2018-11-10T19:15:19.655Z,80.53
2018-11-10T19:17:49.509Z,78.77
2018-11-10T19:20:19.590Z,80.87
2018-11-10T19:22:50.279Z,78.20
2018-11-10T19:25:19.999Z,76.07
2018-11-10T19:27:49.701Z,74.37
2018-11-10T19:30:23.611Z,74.67
2018-11-10T19:32:53.250Z,79.83
2018-11-10T19:35:23.206Z,76.23
2018-11-10T19:37:52.864Z,78.53
2018-11-10T19:40:25.616Z,75.53
2018-11-10T19:42:55.283Z,77.80
2018-11-10T19:45:25.027Z,75.93
2018-11-10T19:47:54.704Z,76.33
2018-11-10T19:50:25.564Z,77.03
2018-11-10T19:52:55.137Z,79.30
2018-11-10T19:55:24.847Z,82.23
2018-11-10T19:57:54.516Z,87.63
2018-11-10T20:00:25.131Z,82.23
2018-11-10T20:02:54.816Z,85.37
2018-11-10T20:05:24.496Z,81.67
2018-11-10T20:07:54.700Z,83.60
2018-11-10T20:10:24.482Z,83.40
2018-11-10T20:12:54.194Z,80.03
2018-11-10T20:15:23.877Z,75.30
2018-11-10T20:17:53.634Z,77.17
2018-11-10T20:20:23.266Z,74.50
2018-11-10T20:22:52.944Z,74.97
2018-11-10T20:25:22.723Z,76.07
2018-11-10T20:27:52.355Z,75.03
2018-11-10T20:30:22.257Z,74.37
2018-11-10T20:32:51.971Z,75.63
2018-11-10T20:35:21.749Z,73.57
2018-11-10T20:37:51.434Z,73.90
2018-11-10T20:40:21.063Z,71.80
2018-11-10T20:42:51.415Z,70.27
2018-11-10T20:45:22.701Z,71.80
2018-11-10T20:47:52.388Z,79.27
2018-11-10T20:50:22.035Z,74.87
2018-11-10T20:52:51.746Z,68.27
2018-11-10T20:55:21.403Z,70.30
2018-11-10T20:57:51.184Z,71.00
2018-11-10T21:00:22.202Z,71.33
2018-11-10T21:02:51.824Z,67.50
2018-11-10T21:05:21.444Z,72.97
2018-11-10T21:07:51.144Z,67.83
2018-11-10T21:10:21.587Z,69.17
2018-11-10T21:12:51.798Z,73.53
2018-11-10T21:15:21.868Z,70.60
2018-11-10T21:17:51.514Z,76.37
2018-11-10T21:20:21.179Z,72.90
2018-11-10T21:22:50.893Z,69.30
2018-11-10T21:25:20.515Z,69.53
2018-11-10T21:27:50.345Z,70.30
2018-11-10T21:30:20.871Z,72.07
2018-11-10T21:32:50.883Z,78.23
2018-11-10T21:35:23.589Z,75.30
2018-11-10T21:37:53.207Z,76.90
2018-11-10T21:40:22.815Z,76.93
2018-11-10T21:42:52.455Z,73.40
2018-11-10T21:45:22.054Z,80.90
2018-11-10T21:47:51.774Z,82.17
2018-11-10T21:50:21.566Z,83.50
2018-11-10T21:52:51.217Z,74.20
2018-11-10T21:55:21.216Z,78.53
2018-11-10T21:57:51.015Z,81.93
2018-11-10T22:00:22.045Z,75.10
2018-11-10T22:02:52.196Z,76.70
2018-11-10T22:05:22.317Z,77.00
2018-11-10T22:07:51.932Z,83.50
2018-11-10T22:10:21.627Z,86.60
2018-11-10T22:12:51.733Z,93.57
2018-11-10T22:15:22.800Z,82.53
2018-11-10T22:17:52.601Z,88.73
2018-11-10T22:20:23.565Z,93.27
2018-11-10T22:22:53.258Z,84.60
2018-11-10T22:25:22.951Z,87.83
2018-11-10T22:27:53.668Z,92.93
2018-11-10T22:30:23.900Z,94.70
2018-11-10T22:32:53.600Z,96.77
2018-11-10T22:35:23.209Z,85.27
2018-11-10T22:37:52.859Z,85.73
2018-11-10T22:40:22.879Z,82.33
2018-11-10T22:42:52.452Z,76.27
2018-11-10T22:45:22.631Z,78.30
2018-11-10T22:47:52.917Z,86.70
2018-11-10T22:50:23.821Z,78.90
2018-11-10T22:52:53.412Z,84.37
2018-11-10T22:55:23.020Z,85.90
2018-11-10T22:57:52.620Z,85.97
2018-11-10T23:00:23.786Z,86.20
2018-11-10T23:02:54.759Z,94.53
2018-11-10T23:05:24.979Z,96.73
2018-11-10T23:07:54.639Z,94.37
2018-11-10T23:10:24.446Z,107.57
2018-11-10T23:12:54.675Z,99.10
2018-11-10T23:15:24.275Z,88.70
2018-11-10T23:17:53.939Z,95.07
2018-11-10T23:20:23.541Z,96.97
2018-11-10T23:22:53.186Z,97.20
2018-11-10T23:25:22.804Z,98.77
2018-11-10T23:27:52.462Z,102.43
2018-11-10T23:30:23.201Z,94.07
2018-11-10T23:32:52.840Z,88.90
2018-11-10T23:35:22.457Z,90.97
2018-11-10T23:37:52.155Z,100.30
2018-11-10T23:40:21.732Z,96.73
2018-11-10T23:42:51.376Z,94.47
2018-11-10T23:45:20.989Z,95.27
2018-11-10T23:47:50.689Z,95.80
2018-11-10T23:50:20.272Z,100.20
2018-11-10T23:52:49.961Z,92.00
2018-11-10T23:55:19.585Z,102.17
2018-11-10T23:57:49.316Z,94.17
